To NAV CANADA Home Page Login to a new session Search on AWWS site Disclaimer Vers la page française équivalente Tips FAQ What's new on the site To the Forecasts and Observations / NOTAM section To "File a Flight Plan" website Publications and other links Update of the User's profile FIC Telephone Numbers My Weather Data Folder Route Weather Data Regional Weather Data Local Weather Data To the Forecasts and Observations / NOTAM section
Request Generated 11/13/2018 at 18:41:12 UTC . Weather information available at that time is displayed.

METAR/TAF

GRANDE PRAIRIE/AB    

METAR CYQU 131800Z 00000KT 25SM SCT160 BKN260 M00/M05 A2990 RMK AC4CI3 SLP158=
METAR CYQU 131700Z 20007KT 25SM SCT140 BKN260 M02/M06 A2992 RMK AC3CI3 SLP166=
METAR CYQU 131600Z 00000KT 25SM FEW140 BKN170 M02/M05 A2993 RMK AC2AC3 SLP166=

TAF CYQU 131238Z 1313/1401 VRB03KT P6SM BKN200
RMK NXT FCST BY 131900Z=
Your time UTC time
Weather data provided by Environment Canada and NAV CANADA